Aviation Digital Data Service (ADDS)

Output produced by TAFs form (0201 UTC 21 April 2018)
found at http://aviationweather.gov/adds/tafs/
 
KABE 202332Z 2100/2124 34012KT P6SM SKC 
     FM210400 31005KT P6SM SKC 
     FM211800 32008KT P6SM SCT250